sensor_id;sensor_type;location;lat;lon;timestamp;P1;durP1;ratioP1;P2;durP2;ratioP2
16878;SDS011;8556;52.218;9.884;2023-09-30T00:00:15;14.13;;;3.70;;
16878;SDS011;8556;52.218;9.884;2023-09-30T00:02:42;11.30;;;4.00;;
16878;SDS011;8556;52.218;9.884;2023-09-30T00:05:09;8.98;;;3.17;;
16878;SDS011;8556;52.218;9.884;2023-09-30T00:07:36;10.57;;;3.40;;
16878;SDS011;8556;52.218;9.884;2023-09-30T00:10:03;13.20;;;4.27;;
16878;SDS011;8556;52.218;9.884;2023-09-30T00:12:30;13.02;;;3.70;;
16878;SDS011;8556;52.218;9.884;2023-09-30T00:14:58;10.17;;;4.07;;
16878;SDS011;8556;52.218;9.884;2023-09-30T00:17:25;8.93;;;3.63;;
16878;SDS011;8556;52.218;9.884;2023-09-30T00:19:52;10.77;;;3.93;;
16878;SDS011;8556;52.218;9.884;2023-09-30T00:22:18;13.00;;;4.23;;
16878;SDS011;8556;52.218;9.884;2023-09-30T00:24:45;14.47;;;3.93;;
16878;SDS011;8556;52.218;9.884;2023-09-30T00:27:13;10.70;;;3.77;;
16878;SDS011;8556;52.218;9.884;2023-09-30T00:29:39;11.37;;;3.73;;
16878;SDS011;8556;52.218;9.884;2023-09-30T00:32:08;13.40;;;3.93;;
16878;SDS011;8556;52.218;9.884;2023-09-30T00:34:35;9.07;;;3.40;;
16878;SDS011;8556;52.218;9.884;2023-09-30T00:37:02;12.67;;;3.70;;
16878;SDS011;8556;52.218;9.884;2023-09-30T00:39:29;11.13;;;3.70;;
16878;SDS011;8556;52.218;9.884;2023-09-30T00:41:56;20.33;;;4.50;;
16878;SDS011;8556;52.218;9.884;2023-09-30T00:44:24;14.40;;;3.70;;
16878;SDS011;8556;52.218;9.884;2023-09-30T00:46:51;12.17;;;4.23;;
16878;SDS011;8556;52.218;9.884;2023-09-30T00:49:19;13.10;;;4.33;;
16878;SDS011;8556;52.218;9.884;2023-09-30T00:51:46;11.05;;;3.60;;
16878;SDS011;8556;52.218;9.884;2023-09-30T00:54:14;12.17;;;3.80;;
16878;SDS011;8556;52.218;9.884;2023-09-30T00:56:43;13.17;;;3.93;;
16878;SDS011;8556;52.218;9.884;2023-09-30T00:59:11;11.93;;;3.43;;
16878;SDS011;8556;52.218;9.884;2023-09-30T01:01:39;12.47;;;3.73;;
16878;SDS011;8556;52.218;9.884;2023-09-30T01:04:07;15.57;;;4.83;;
16878;SDS011;8556;52.218;9.884;2023-09-30T01:06:36;17.47;;;4.33;;
16878;SDS011;8556;52.218;9.884;2023-09-30T01:09:01;11.70;;;3.77;;
16878;SDS011;8556;52.218;9.884;2023-09-30T01:11:29;11.03;;;3.70;;
16878;SDS011;8556;52.218;9.884;2023-09-30T01:13:56;12.83;;;3.93;;
16878;SDS011;8556;52.218;9.884;2023-09-30T01:16:23;12.50;;;3.60;;
16878;SDS011;8556;52.218;9.884;2023-09-30T01:18:50;11.87;;;4.23;;
16878;SDS011;8556;52.218;9.884;2023-09-30T01:21:17;12.53;;;4.43;;
16878;SDS011;8556;52.218;9.884;2023-09-30T01:23:46;10.57;;;3.30;;
16878;SDS011;8556;52.218;9.884;2023-09-30T01:26:13;12.77;;;4.13;;
16878;SDS011;8556;52.218;9.884;2023-09-30T01:28:40;16.47;;;3.80;;
16878;SDS011;8556;52.218;9.884;2023-09-30T01:31:07;15.57;;;4.77;;
16878;SDS011;8556;52.218;9.884;2023-09-30T01:33:34;12.27;;;3.80;;
16878;SDS011;8556;52.218;9.884;2023-09-30T01:36:01;16.17;;;4.20;;
16878;SDS011;8556;52.218;9.884;2023-09-30T01:38:28;15.77;;;3.90;;
16878;SDS011;8556;52.218;9.884;2023-09-30T01:40:56;10.83;;;3.90;;
16878;SDS011;8556;52.218;9.884;2023-09-30T01:43:23;18.27;;;3.93;;
16878;SDS011;8556;52.218;9.884;2023-09-30T01:45:50;14.97;;;4.00;;
16878;SDS011;8556;52.218;9.884;2023-09-30T01:48:16;16.33;;;4.63;;
16878;SDS011;8556;52.218;9.884;2023-09-30T01:50:43;16.20;;;4.30;;
16878;SDS011;8556;52.218;9.884;2023-09-30T01:53:10;15.33;;;4.63;;
16878;SDS011;8556;52.218;9.884;2023-09-30T01:55:37;12.20;;;4.53;;
16878;SDS011;8556;52.218;9.884;2023-09-30T01:58:05;14.60;;;5.67;;
16878;SDS011;8556;52.218;9.884;2023-09-30T02:00:32;15.77;;;4.90;;
16878;SDS011;8556;52.218;9.884;2023-09-30T02:03:00;16.17;;;5.77;;
16878;SDS011;8556;52.218;9.884;2023-09-30T02:05:27;13.50;;;4.90;;
16878;SDS011;8556;52.218;9.884;2023-09-30T02:07:53;13.50;;;4.70;;
16878;SDS011;8556;52.218;9.884;2023-09-30T02:10:20;10.27;;;4.53;;
16878;SDS011;8556;52.218;9.884;2023-09-30T02:12:47;13.20;;;4.83;;
16878;SDS011;8556;52.218;9.884;2023-09-30T02:15:15;14.20;;;4.77;;
16878;SDS011;8556;52.218;9.884;2023-09-30T02:17:42;22.47;;;7.07;;
16878;SDS011;8556;52.218;9.884;2023-09-30T02:20:11;14.73;;;4.77;;
16878;SDS011;8556;52.218;9.884;2023-09-30T02:22:41;18.07;;;4.70;;
16878;SDS011;8556;52.218;9.884;2023-09-30T02:25:08;12.57;;;4.30;;
16878;SDS011;8556;52.218;9.884;2023-09-30T02:27:37;14.60;;;4.37;;
16878;SDS011;8556;52.218;9.884;2023-09-30T02:30:07;17.83;;;5.07;;
16878;SDS011;8556;52.218;9.884;2023-09-30T02:32:37;8.53;;;3.93;;
16878;SDS011;8556;52.218;9.884;2023-09-30T02:35:05;17.07;;;5.23;;
16878;SDS011;8556;52.218;9.884;2023-09-30T02:37:33;15.73;;;5.03;;
16878;SDS011;8556;52.218;9.884;2023-09-30T02:40:02;14.23;;;4.50;;
16878;SDS011;8556;52.218;9.884;2023-09-30T02:42:30;16.47;;;5.17;;
16878;SDS011;8556;52.218;9.884;2023-09-30T02:44:59;14.23;;;4.67;;
16878;SDS011;8556;52.218;9.884;2023-09-30T02:47:26;13.50;;;5.37;;
16878;SDS011;8556;52.218;9.884;2023-09-30T02:49:54;11.83;;;4.23;;
16878;SDS011;8556;52.218;9.884;2023-09-30T02:52:22;16.43;;;5.20;;
16878;SDS011;8556;52.218;9.884;2023-09-30T02:54:50;10.67;;;4.50;;
16878;SDS011;8556;52.218;9.884;2023-09-30T02:57:17;16.10;;;4.43;;
16878;SDS011;8556;52.218;9.884;2023-09-30T02:59:44;12.30;;;4.10;;
16878;SDS011;8556;52.218;9.884;2023-09-30T03:02:11;16.60;;;4.83;;
16878;SDS011;8556;52.218;9.884;2023-09-30T03:04:38;12.70;;;4.73;;
16878;SDS011;8556;52.218;9.884;2023-09-30T03:07:06;14.57;;;5.07;;
16878;SDS011;8556;52.218;9.884;2023-09-30T03:09:33;18.00;;;4.57;;
16878;SDS011;8556;52.218;9.884;2023-09-30T03:12:00;14.77;;;4.60;;
16878;SDS011;8556;52.218;9.884;2023-09-30T03:14:29;12.87;;;4.50;;
16878;SDS011;8556;52.218;9.884;2023-09-30T03:16:57;15.07;;;5.10;;
16878;SDS011;8556;52.218;9.884;2023-09-30T03:19:24;11.53;;;4.23;;
16878;SDS011;8556;52.218;9.884;2023-09-30T03:21:50;14.00;;;4.80;;
16878;SDS011;8556;52.218;9.884;2023-09-30T03:24:19;12.70;;;4.77;;
16878;SDS011;8556;52.218;9.884;2023-09-30T03:26:46;16.83;;;5.30;;
16878;SDS011;8556;52.218;9.884;2023-09-30T03:29:13;13.13;;;4.70;;
16878;SDS011;8556;52.218;9.884;2023-09-30T03:31:39;13.73;;;4.57;;
16878;SDS011;8556;52.218;9.884;2023-09-30T03:34:06;12.70;;;5.30;;
16878;SDS011;8556;52.218;9.884;2023-09-30T03:36:33;15.97;;;4.97;;
16878;SDS011;8556;52.218;9.884;2023-09-30T03:39:00;10.73;;;4.70;;
16878;SDS011;8556;52.218;9.884;2023-09-30T03:41:34;21.17;;;5.20;;
16878;SDS011;8556;52.218;9.884;2023-09-30T03:44:02;16.70;;;5.07;;
16878;SDS011;8556;52.218;9.884;2023-09-30T03:46:29;13.63;;;5.07;;
16878;SDS011;8556;52.218;9.884;2023-09-30T03:48:56;12.50;;;4.33;;
16878;SDS011;8556;52.218;9.884;2023-09-30T03:51:24;12.70;;;4.30;;
16878;SDS011;8556;52.218;9.884;2023-09-30T03:53:51;13.20;;;5.97;;
16878;SDS011;8556;52.218;9.884;2023-09-30T03:56:18;18.90;;;6.00;;
16878;SDS011;8556;52.218;9.884;2023-09-30T03:58:48;14.90;;;5.33;;
16878;SDS011;8556;52.218;9.884;2023-09-30T04:01:16;12.23;;;4.83;;
16878;SDS011;8556;52.218;9.884;2023-09-30T04:03:45;14.90;;;5.13;;
16878;SDS011;8556;52.218;9.884;2023-09-30T04:06:11;17.30;;;4.80;;
16878;SDS011;8556;52.218;9.884;2023-09-30T04:08:38;16.53;;;5.10;;
16878;SDS011;8556;52.218;9.884;2023-09-30T04:11:05;15.37;;;4.77;;
16878;SDS011;8556;52.218;9.884;2023-09-30T04:13:32;14.57;;;5.63;;
16878;SDS011;8556;52.218;9.884;2023-09-30T04:16:01;16.63;;;5.13;;
16878;SDS011;8556;52.218;9.884;2023-09-30T04:18:28;12.80;;;4.80;;
16878;SDS011;8556;52.218;9.884;2023-09-30T04:20:55;14.43;;;4.03;;
16878;SDS011;8556;52.218;9.884;2023-09-30T04:23:22;15.37;;;4.10;;
16878;SDS011;8556;52.218;9.884;2023-09-30T04:25:49;10.03;;;4.07;;
16878;SDS011;8556;52.218;9.884;2023-09-30T04:28:16;13.60;;;4.67;;
16878;SDS011;8556;52.218;9.884;2023-09-30T04:30:46;13.57;;;4.07;;
16878;SDS011;8556;52.218;9.884;2023-09-30T04:33:15;14.13;;;4.93;;
16878;SDS011;8556;52.218;9.884;2023-09-30T04:35:42;18.80;;;9.10;;
16878;SDS011;8556;52.218;9.884;2023-09-30T04:38:09;14.03;;;4.73;;
16878;SDS011;8556;52.218;9.884;2023-09-30T04:40:36;16.83;;;4.07;;
16878;SDS011;8556;52.218;9.884;2023-09-30T04:43:03;12.80;;;4.00;;
16878;SDS011;8556;52.218;9.884;2023-09-30T04:45:30;13.03;;;3.90;;
16878;SDS011;8556;52.218;9.884;2023-09-30T04:47:58;13.97;;;4.63;;
16878;SDS011;8556;52.218;9.884;2023-09-30T04:50:27;15.00;;;4.13;;
16878;SDS011;8556;52.218;9.884;2023-09-30T04:52:55;14.80;;;4.43;;
16878;SDS011;8556;52.218;9.884;2023-09-30T04:55:22;17.27;;;5.13;;
16878;SDS011;8556;52.218;9.884;2023-09-30T04:57:49;12.80;;;3.80;;
16878;SDS011;8556;52.218;9.884;2023-09-30T05:00:17;10.70;;;4.27;;
16878;SDS011;8556;52.218;9.884;2023-09-30T05:02:50;12.40;;;4.33;;
16878;SDS011;8556;52.218;9.884;2023-09-30T05:05:17;12.60;;;4.63;;
16878;SDS011;8556;52.218;9.884;2023-09-30T05:07:45;11.90;;;4.27;;
16878;SDS011;8556;52.218;9.884;2023-09-30T05:10:12;13.73;;;4.60;;
16878;SDS011;8556;52.218;9.884;2023-09-30T05:12:41;17.87;;;5.00;;
16878;SDS011;8556;52.218;9.884;2023-09-30T05:15:10;13.20;;;5.03;;
16878;SDS011;8556;52.218;9.884;2023-09-30T05:17:38;16.00;;;5.03;;
16878;SDS011;8556;52.218;9.884;2023-09-30T05:20:05;11.10;;;4.23;;
16878;SDS011;8556;52.218;9.884;2023-09-30T05:22:33;16.93;;;5.20;;
16878;SDS011;8556;52.218;9.884;2023-09-30T05:25:01;17.10;;;4.77;;
16878;SDS011;8556;52.218;9.884;2023-09-30T05:27:28;12.43;;;4.80;;
16878;SDS011;8556;52.218;9.884;2023-09-30T05:29:55;17.17;;;5.27;;
16878;SDS011;8556;52.218;9.884;2023-09-30T05:32:21;13.07;;;4.80;;
16878;SDS011;8556;52.218;9.884;2023-09-30T05:34:48;11.60;;;4.23;;
16878;SDS011;8556;52.218;9.884;2023-09-30T05:37:15;12.37;;;4.10;;
16878;SDS011;8556;52.218;9.884;2023-09-30T05:39:42;12.50;;;4.50;;
16878;SDS011;8556;52.218;9.884;2023-09-30T05:42:11;13.43;;;4.50;;
16878;SDS011;8556;52.218;9.884;2023-09-30T05:44:39;16.60;;;5.23;;
16878;SDS011;8556;52.218;9.884;2023-09-30T05:47:06;16.20;;;4.70;;
16878;SDS011;8556;52.218;9.884;2023-09-30T05:49:33;10.30;;;3.60;;
16878;SDS011;8556;52.218;9.884;2023-09-30T05:52:01;11.87;;;4.47;;
16878;SDS011;8556;52.218;9.884;2023-09-30T05:54:28;12.63;;;3.60;;
16878;SDS011;8556;52.218;9.884;2023-09-30T05:56:55;9.33;;;3.50;;
16878;SDS011;8556;52.218;9.884;2023-09-30T05:59:23;18.90;;;4.87;;
16878;SDS011;8556;52.218;9.884;2023-09-30T06:01:51;14.07;;;4.63;;
16878;SDS011;8556;52.218;9.884;2023-09-30T06:04:17;14.40;;;3.70;;
16878;SDS011;8556;52.218;9.884;2023-09-30T06:06:46;15.50;;;3.97;;
16878;SDS011;8556;52.218;9.884;2023-09-30T06:09:13;14.70;;;4.03;;
16878;SDS011;8556;52.218;9.884;2023-09-30T06:11:40;14.00;;;3.70;;
16878;SDS011;8556;52.218;9.884;2023-09-30T06:14:07;13.00;;;4.43;;
16878;SDS011;8556;52.218;9.884;2023-09-30T06:16:35;10.90;;;3.63;;
16878;SDS011;8556;52.218;9.884;2023-09-30T06:19:02;12.67;;;3.70;;
16878;SDS011;8556;52.218;9.884;2023-09-30T06:21:29;14.17;;;4.30;;
16878;SDS011;8556;52.218;9.884;2023-09-30T06:23:56;13.07;;;4.20;;
16878;SDS011;8556;52.218;9.884;2023-09-30T06:26:23;12.17;;;4.17;;
16878;SDS011;8556;52.218;9.884;2023-09-30T06:28:52;15.17;;;3.80;;
16878;SDS011;8556;52.218;9.884;2023-09-30T06:31:21;11.97;;;4.23;;
16878;SDS011;8556;52.218;9.884;2023-09-30T06:33:49;13.70;;;3.83;;
16878;SDS011;8556;52.218;9.884;2023-09-30T06:36:16;11.87;;;4.30;;
16878;SDS011;8556;52.218;9.884;2023-09-30T06:38:43;16.13;;;4.30;;
16878;SDS011;8556;52.218;9.884;2023-09-30T06:41:15;11.37;;;4.23;;
16878;SDS011;8556;52.218;9.884;2023-09-30T06:43:42;12.83;;;4.17;;
16878;SDS011;8556;52.218;9.884;2023-09-30T06:46:09;17.27;;;5.27;;
16878;SDS011;8556;52.218;9.884;2023-09-30T06:48:37;15.37;;;4.37;;
16878;SDS011;8556;52.218;9.884;2023-09-30T06:51:06;12.43;;;4.60;;
16878;SDS011;8556;52.218;9.884;2023-09-30T06:53:33;13.10;;;5.13;;
16878;SDS011;8556;52.218;9.884;2023-09-30T06:56:02;13.07;;;4.57;;
16878;SDS011;8556;52.218;9.884;2023-09-30T06:58:31;11.03;;;4.80;;
16878;SDS011;8556;52.218;9.884;2023-09-30T07:00:58;13.27;;;4.97;;
16878;SDS011;8556;52.218;9.884;2023-09-30T07:03:25;16.40;;;4.27;;
16878;SDS011;8556;52.218;9.884;2023-09-30T07:05:51;12.77;;;4.17;;
16878;SDS011;8556;52.218;9.884;2023-09-30T07:08:20;14.30;;;4.20;;
16878;SDS011;8556;52.218;9.884;2023-09-30T07:10:47;15.17;;;4.17;;
16878;SDS011;8556;52.218;9.884;2023-09-30T07:13:15;15.60;;;4.03;;
16878;SDS011;8556;52.218;9.884;2023-09-30T07:15:43;15.03;;;4.33;;
16878;SDS011;8556;52.218;9.884;2023-09-30T07:18:10;13.97;;;4.03;;
16878;SDS011;8556;52.218;9.884;2023-09-30T07:20:37;22.73;;;4.37;;
16878;SDS011;8556;52.218;9.884;2023-09-30T07:23:04;15.87;;;4.43;;
16878;SDS011;8556;52.218;9.884;2023-09-30T07:25:32;14.77;;;4.37;;
16878;SDS011;8556;52.218;9.884;2023-09-30T07:27:59;11.83;;;4.57;;
16878;SDS011;8556;52.218;9.884;2023-09-30T07:30:27;15.73;;;4.73;;
16878;SDS011;8556;52.218;9.884;2023-09-30T07:32:54;14.63;;;4.82;;
16878;SDS011;8556;52.218;9.884;2023-09-30T07:35:20;9.38;;;3.65;;
16878;SDS011;8556;52.218;9.884;2023-09-30T07:37:47;14.70;;;4.35;;
16878;SDS011;8556;52.218;9.884;2023-09-30T07:40:17;12.68;;;4.53;;
16878;SDS011;8556;52.218;9.884;2023-09-30T07:42:45;17.67;;;4.60;;
16878;SDS011;8556;52.218;9.884;2023-09-30T07:45:11;8.88;;;3.40;;
16878;SDS011;8556;52.218;9.884;2023-09-30T07:47:41;12.65;;;4.47;;
16878;SDS011;8556;52.218;9.884;2023-09-30T07:50:09;12.85;;;5.22;;
16878;SDS011;8556;52.218;9.884;2023-09-30T07:52:37;18.52;;;5.40;;
16878;SDS011;8556;52.218;9.884;2023-09-30T07:55:05;17.67;;;4.18;;
16878;SDS011;8556;52.218;9.884;2023-09-30T07:57:33;11.85;;;4.25;;
16878;SDS011;8556;52.218;9.884;2023-09-30T08:00:02;13.25;;;4.85;;
16878;SDS011;8556;52.218;9.884;2023-09-30T08:02:32;13.80;;;4.55;;
16878;SDS011;8556;52.218;9.884;2023-09-30T08:04:59;15.32;;;4.63;;
16878;SDS011;8556;52.218;9.884;2023-09-30T08:07:26;16.05;;;4.32;;
16878;SDS011;8556;52.218;9.884;2023-09-30T08:09:53;13.98;;;4.05;;
16878;SDS011;8556;52.218;9.884;2023-09-30T08:12:20;12.93;;;4.35;;
16878;SDS011;8556;52.218;9.884;2023-09-30T08:14:47;14.40;;;4.90;;
16878;SDS011;8556;52.218;9.884;2023-09-30T08:17:15;11.32;;;4.22;;
16878;SDS011;8556;52.218;9.884;2023-09-30T08:19:43;16.48;;;4.50;;
16878;SDS011;8556;52.218;9.884;2023-09-30T08:22:11;17.45;;;4.50;;
16878;SDS011;8556;52.218;9.884;2023-09-30T08:24:38;13.68;;;4.40;;
16878;SDS011;8556;52.218;9.884;2023-09-30T08:27:05;12.63;;;5.15;;
16878;SDS011;8556;52.218;9.884;2023-09-30T08:29:33;14.93;;;4.40;;
16878;SDS011;8556;52.218;9.884;2023-09-30T08:32:01;8.57;;;3.30;;
16878;SDS011;8556;52.218;9.884;2023-09-30T08:34:29;14.73;;;3.92;;
16878;SDS011;8556;52.218;9.884;2023-09-30T08:36:56;10.38;;;3.45;;
16878;SDS011;8556;52.218;9.884;2023-09-30T08:39:24;8.20;;;3.10;;
16878;SDS011;8556;52.218;9.884;2023-09-30T08:41:50;12.02;;;3.42;;
16878;SDS011;8556;52.218;9.884;2023-09-30T08:44:19;12.20;;;3.33;;
16878;SDS011;8556;52.218;9.884;2023-09-30T08:46:46;9.10;;;2.92;;
16878;SDS011;8556;52.218;9.884;2023-09-30T08:49:14;8.23;;;2.95;;
16878;SDS011;8556;52.218;9.884;2023-09-30T08:51:43;13.80;;;3.35;;
16878;SDS011;8556;52.218;9.884;2023-09-30T08:54:10;12.30;;;3.97;;
16878;SDS011;8556;52.218;9.884;2023-09-30T08:56:37;16.08;;;3.72;;
16878;SDS011;8556;52.218;9.884;2023-09-30T08:59:07;10.77;;;3.28;;
16878;SDS011;8556;52.218;9.884;2023-09-30T09:01:36;10.27;;;3.00;;
16878;SDS011;8556;52.218;9.884;2023-09-30T09:04:04;10.45;;;3.80;;
16878;SDS011;8556;52.218;9.884;2023-09-30T09:06:33;5.82;;;2.70;;
16878;SDS011;8556;52.218;9.884;2023-09-30T09:09:13;9.38;;;2.88;;
16878;SDS011;8556;52.218;9.884;2023-09-30T09:11:41;6.18;;;2.72;;
16878;SDS011;8556;52.218;9.884;2023-09-30T09:14:08;9.52;;;3.00;;
16878;SDS011;8556;52.218;9.884;2023-09-30T09:16:36;10.75;;;3.40;;
16878;SDS011;8556;52.218;9.884;2023-09-30T09:19:12;10.60;;;2.95;;
16878;SDS011;8556;52.218;9.884;2023-09-30T09:21:52;9.38;;;2.50;;
16878;SDS011;8556;52.218;9.884;2023-09-30T09:24:27;8.95;;;2.78;;
16878;SDS011;8556;52.218;9.884;2023-09-30T09:27:03;8.25;;;2.75;;
16878;SDS011;8556;52.218;9.884;2023-09-30T09:29:31;9.15;;;2.35;;
16878;SDS011;8556;52.218;9.884;2023-09-30T09:32:08;6.68;;;2.47;;
16878;SDS011;8556;52.218;9.884;2023-09-30T09:34:36;7.82;;;2.83;;
16878;SDS011;8556;52.218;9.884;2023-09-30T09:39:50;11.63;;;2.90;;
16878;SDS011;8556;52.218;9.884;2023-09-30T09:42:24;10.88;;;2.75;;
16878;SDS011;8556;52.218;9.884;2023-09-30T09:44:54;6.57;;;2.85;;
16878;SDS011;8556;52.218;9.884;2023-09-30T09:47:23;6.97;;;2.58;;
16878;SDS011;8556;52.218;9.884;2023-09-30T09:49:51;8.50;;;3.00;;
16878;SDS011;8556;52.218;9.884;2023-09-30T09:52:19;8.07;;;2.50;;
16878;SDS011;8556;52.218;9.884;2023-09-30T09:54:47;5.40;;;2.30;;
16878;SDS011;8556;52.218;9.884;2023-09-30T09:57:17;9.82;;;3.08;;
16878;SDS011;8556;52.218;9.884;2023-09-30T09:59:44;7.57;;;2.78;;
16878;SDS011;8556;52.218;9.884;2023-09-30T10:02:12;7.13;;;2.50;;
16878;SDS011;8556;52.218;9.884;2023-09-30T10:04:40;5.25;;;2.20;;
16878;SDS011;8556;52.218;9.884;2023-09-30T10:07:09;6.28;;;2.50;;
16878;SDS011;8556;52.218;9.884;2023-09-30T10:09:39;4.90;;;2.53;;
16878;SDS011;8556;52.218;9.884;2023-09-30T10:12:13;7.57;;;2.67;;
16878;SDS011;8556;52.218;9.884;2023-09-30T10:14:41;9.93;;;2.70;;
16878;SDS011;8556;52.218;9.884;2023-09-30T10:17:09;10.00;;;2.55;;
16878;SDS011;8556;52.218;9.884;2023-09-30T10:19:36;5.93;;;2.30;;
16878;SDS011;8556;52.218;9.884;2023-09-30T10:22:30;6.38;;;2.13;;
16878;SDS011;8556;52.218;9.884;2023-09-30T10:24:57;8.90;;;2.20;;
16878;SDS011;8556;52.218;9.884;2023-09-30T10:27:29;7.38;;;2.33;;
16878;SDS011;8556;52.218;9.884;2023-09-30T10:30:05;5.05;;;2.05;;
16878;SDS011;8556;52.218;9.884;2023-09-30T10:35:43;7.57;;;2.40;;
16878;SDS011;8556;52.218;9.884;2023-09-30T10:41:10;7.30;;;2.38;;
16878;SDS011;8556;52.218;9.884;2023-09-30T10:43:58;4.75;;;1.95;;
16878;SDS011;8556;52.218;9.884;2023-09-30T10:47:00;8.63;;;2.20;;
16878;SDS011;8556;52.218;9.884;2023-09-30T10:50:03;5.43;;;1.92;;
16878;SDS011;8556;52.218;9.884;2023-09-30T10:52:51;4.82;;;1.95;;
16878;SDS011;8556;52.218;9.884;2023-09-30T10:55:19;8.63;;;2.35;;
16878;SDS011;8556;52.218;9.884;2023-09-30T10:57:50;6.38;;;2.03;;
16878;SDS011;8556;52.218;9.884;2023-09-30T11:00:19;5.93;;;1.83;;
16878;SDS011;8556;52.218;9.884;2023-09-30T11:02:47;7.35;;;2.10;;
16878;SDS011;8556;52.218;9.884;2023-09-30T11:05:16;4.97;;;1.70;;
16878;SDS011;8556;52.218;9.884;2023-09-30T11:07:44;6.95;;;1.75;;
16878;SDS011;8556;52.218;9.884;2023-09-30T11:10:15;4.90;;;1.60;;
16878;SDS011;8556;52.218;9.884;2023-09-30T11:12:52;6.10;;;1.85;;
16878;SDS011;8556;52.218;9.884;2023-09-30T11:15:23;6.45;;;1.60;;
16878;SDS011;8556;52.218;9.884;2023-09-30T11:17:51;5.38;;;2.00;;
16878;SDS011;8556;52.218;9.884;2023-09-30T11:20:18;7.25;;;2.22;;
16878;SDS011;8556;52.218;9.884;2023-09-30T11:22:46;5.05;;;1.60;;
16878;SDS011;8556;52.218;9.884;2023-09-30T11:25:16;4.30;;;1.83;;
16878;SDS011;8556;52.218;9.884;2023-09-30T11:27:44;6.35;;;1.70;;
16878;SDS011;8556;52.218;9.884;2023-09-30T11:30:12;5.38;;;2.10;;
16878;SDS011;8556;52.218;9.884;2023-09-30T11:32:41;3.28;;;1.50;;
16878;SDS011;8556;52.218;9.884;2023-09-30T11:35:08;5.75;;;2.20;;
16878;SDS011;8556;52.218;9.884;2023-09-30T11:37:36;4.55;;;1.73;;
16878;SDS011;8556;52.218;9.884;2023-09-30T11:40:10;8.18;;;2.00;;
16878;SDS011;8556;52.218;9.884;2023-09-30T11:42:38;4.15;;;1.85;;
16878;SDS011;8556;52.218;9.884;2023-09-30T11:45:18;5.20;;;1.42;;
16878;SDS011;8556;52.218;9.884;2023-09-30T11:47:48;5.22;;;2.05;;
16878;SDS011;8556;52.218;9.884;2023-09-30T11:50:15;9.15;;;2.60;;
16878;SDS011;8556;52.218;9.884;2023-09-30T11:52:44;5.72;;;1.83;;
16878;SDS011;8556;52.218;9.884;2023-09-30T11:55:12;7.05;;;2.22;;
16878;SDS011;8556;52.218;9.884;2023-09-30T11:57:41;4.55;;;1.85;;
16878;SDS011;8556;52.218;9.884;2023-09-30T12:00:09;4.25;;;2.00;;
16878;SDS011;8556;52.218;9.884;2023-09-30T12:02:39;5.47;;;1.98;;
16878;SDS011;8556;52.218;9.884;2023-09-30T12:05:08;5.40;;;2.28;;
16878;SDS011;8556;52.218;9.884;2023-09-30T12:07:36;3.20;;;1.67;;
16878;SDS011;8556;52.218;9.884;2023-09-30T12:10:06;4.53;;;1.77;;
16878;SDS011;8556;52.218;9.884;2023-09-30T12:12:33;4.38;;;1.88;;
16878;SDS011;8556;52.218;9.884;2023-09-30T12:15:00;4.25;;;1.67;;
16878;SDS011;8556;52.218;9.884;2023-09-30T12:17:28;4.03;;;1.95;;
16878;SDS011;8556;52.218;9.884;2023-09-30T12:19:55;6.43;;;1.75;;
16878;SDS011;8556;52.218;9.884;2023-09-30T12:22:23;5.63;;;1.90;;
16878;SDS011;8556;52.218;9.884;2023-09-30T12:24:50;4.60;;;2.17;;
16878;SDS011;8556;52.218;9.884;2023-09-30T12:27:17;5.38;;;1.88;;
16878;SDS011;8556;52.218;9.884;2023-09-30T12:29:44;4.95;;;2.17;;
16878;SDS011;8556;52.218;9.884;2023-09-30T12:32:13;5.85;;;2.13;;
16878;SDS011;8556;52.218;9.884;2023-09-30T12:34:40;5.70;;;1.85;;
16878;SDS011;8556;52.218;9.884;2023-09-30T12:37:06;4.15;;;1.60;;
16878;SDS011;8556;52.218;9.884;2023-09-30T12:39:35;4.07;;;1.85;;
16878;SDS011;8556;52.218;9.884;2023-09-30T12:42:01;4.45;;;2.00;;
16878;SDS011;8556;52.218;9.884;2023-09-30T12:44:33;4.03;;;1.58;;
16878;SDS011;8556;52.218;9.884;2023-09-30T12:47:00;4.32;;;1.50;;
16878;SDS011;8556;52.218;9.884;2023-09-30T12:49:28;3.28;;;1.80;;
16878;SDS011;8556;52.218;9.884;2023-09-30T12:51:54;3.80;;;1.83;;
16878;SDS011;8556;52.218;9.884;2023-09-30T12:54:23;6.00;;;1.98;;
16878;SDS011;8556;52.218;9.884;2023-09-30T12:56:51;3.85;;;1.88;;
16878;SDS011;8556;52.218;9.884;2023-09-30T12:59:18;6.45;;;2.20;;
16878;SDS011;8556;52.218;9.884;2023-09-30T13:01:49;4.97;;;1.90;;
16878;SDS011;8556;52.218;9.884;2023-09-30T13:04:16;4.57;;;1.83;;
16878;SDS011;8556;52.218;9.884;2023-09-30T13:06:43;5.40;;;2.00;;
16878;SDS011;8556;52.218;9.884;2023-09-30T13:09:11;5.53;;;2.17;;
16878;SDS011;8556;52.218;9.884;2023-09-30T13:11:38;6.05;;;1.98;;
16878;SDS011;8556;52.218;9.884;2023-09-30T13:14:06;5.20;;;1.77;;
16878;SDS011;8556;52.218;9.884;2023-09-30T13:16:33;6.22;;;2.38;;
16878;SDS011;8556;52.218;9.884;2023-09-30T13:19:00;8.38;;;2.28;;
16878;SDS011;8556;52.218;9.884;2023-09-30T13:21:27;4.70;;;2.08;;
16878;SDS011;8556;52.218;9.884;2023-09-30T13:23:55;4.85;;;2.20;;
16878;SDS011;8556;52.218;9.884;2023-09-30T13:26:21;5.22;;;2.08;;
16878;SDS011;8556;52.218;9.884;2023-09-30T13:28:48;6.05;;;1.85;;
16878;SDS011;8556;52.218;9.884;2023-09-30T13:31:16;4.93;;;2.15;;
16878;SDS011;8556;52.218;9.884;2023-09-30T13:33:43;3.92;;;1.73;;
16878;SDS011;8556;52.218;9.884;2023-09-30T13:36:11;4.22;;;1.73;;
16878;SDS011;8556;52.218;9.884;2023-09-30T13:38:38;6.20;;;2.70;;
16878;SDS011;8556;52.218;9.884;2023-09-30T13:41:05;3.97;;;1.98;;
16878;SDS011;8556;52.218;9.884;2023-09-30T13:43:32;4.90;;;2.10;;
16878;SDS011;8556;52.218;9.884;2023-09-30T13:46:02;6.05;;;2.20;;
16878;SDS011;8556;52.218;9.884;2023-09-30T13:48:33;4.63;;;1.77;;
16878;SDS011;8556;52.218;9.884;2023-09-30T13:51:03;3.92;;;1.98;;
16878;SDS011;8556;52.218;9.884;2023-09-30T13:53:31;4.75;;;2.08;;
16878;SDS011;8556;52.218;9.884;2023-09-30T13:55:58;4.90;;;2.03;;
16878;SDS011;8556;52.218;9.884;2023-09-30T13:58:24;5.63;;;2.20;;
16878;SDS011;8556;52.218;9.884;2023-09-30T14:00:51;5.00;;;2.30;;
16878;SDS011;8556;52.218;9.884;2023-09-30T14:03:18;8.52;;;2.58;;
16878;SDS011;8556;52.218;9.884;2023-09-30T14:05:47;8.27;;;2.20;;
16878;SDS011;8556;52.218;9.884;2023-09-30T14:08:14;6.70;;;2.65;;
16878;SDS011;8556;52.218;9.884;2023-09-30T14:10:41;11.48;;;3.10;;
16878;SDS011;8556;52.218;9.884;2023-09-30T14:13:09;9.35;;;2.88;;
16878;SDS011;8556;52.218;9.884;2023-09-30T14:15:36;5.20;;;2.20;;
16878;SDS011;8556;52.218;9.884;2023-09-30T14:18:03;6.05;;;2.10;;
16878;SDS011;8556;52.218;9.884;2023-09-30T14:20:31;6.85;;;2.40;;
16878;SDS011;8556;52.218;9.884;2023-09-30T14:23:00;5.65;;;2.78;;
16878;SDS011;8556;52.218;9.884;2023-09-30T14:25:27;8.10;;;2.70;;
16878;SDS011;8556;52.218;9.884;2023-09-30T14:27:53;5.85;;;2.70;;
16878;SDS011;8556;52.218;9.884;2023-09-30T14:30:21;6.88;;;2.47;;
16878;SDS011;8556;52.218;9.884;2023-09-30T14:32:49;4.63;;;2.50;;
16878;SDS011;8556;52.218;9.884;2023-09-30T14:35:16;6.82;;;3.10;;
16878;SDS011;8556;52.218;9.884;2023-09-30T14:37:43;5.63;;;2.92;;
16878;SDS011;8556;52.218;9.884;2023-09-30T14:40:12;6.97;;;2.60;;
16878;SDS011;8556;52.218;9.884;2023-09-30T14:42:39;7.80;;;2.83;;
16878;SDS011;8556;52.218;9.884;2023-09-30T14:45:07;7.50;;;2.97;;
16878;SDS011;8556;52.218;9.884;2023-09-30T14:47:35;3.85;;;2.20;;
16878;SDS011;8556;52.218;9.884;2023-09-30T14:50:03;6.57;;;2.67;;
16878;SDS011;8556;52.218;9.884;2023-09-30T14:52:31;5.45;;;2.65;;
16878;SDS011;8556;52.218;9.884;2023-09-30T14:54:58;5.03;;;2.28;;
16878;SDS011;8556;52.218;9.884;2023-09-30T14:57:27;6.68;;;2.97;;
16878;SDS011;8556;52.218;9.884;2023-09-30T14:59:54;5.30;;;2.40;;
16878;SDS011;8556;52.218;9.884;2023-09-30T15:02:24;5.70;;;2.47;;
16878;SDS011;8556;52.218;9.884;2023-09-30T15:04:51;4.30;;;2.38;;
16878;SDS011;8556;52.218;9.884;2023-09-30T15:07:18;4.85;;;1.83;;